createdAt,value
2023-03-02T00:02:13.253Z,-34.55
2023-03-02T00:04:49.149Z,-34.62
2023-03-02T00:07:19.942Z,-34.58
2023-03-02T00:09:46.623Z,-34.76
2023-03-02T00:12:13.482Z,-34.66
2023-03-02T00:14:40.165Z,-34.67
2023-03-02T00:17:07.977Z,-34.67
2023-03-02T00:19:34.577Z,-34.71
2023-03-02T00:22:01.353Z,-34.72
2023-03-02T00:24:27.934Z,-34.78
2023-03-02T00:26:54.491Z,-34.78
2023-03-02T00:29:20.968Z,-34.85
2023-03-02T00:31:47.532Z,-34.85
2023-03-02T00:34:14.040Z,-34.87
2023-03-02T00:36:40.835Z,-34.88
2023-03-02T00:39:07.667Z,-34.92
2023-03-02T00:41:34.187Z,-34.85
2023-03-02T00:44:00.698Z,-34.91
2023-03-02T00:46:28.538Z,-34.98
2023-03-02T00:48:55.694Z,-34.97
2023-03-02T00:51:22.244Z,-35.00
2023-03-02T00:53:48.736Z,-35.02
2023-03-02T00:56:15.175Z,-34.94
2023-03-02T00:58:41.712Z,-35.04
2023-03-02T01:01:10.534Z,-35.24
2023-03-02T01:03:37.105Z,-35.15
2023-03-02T01:06:04.739Z,-35.12
2023-03-02T01:08:31.646Z,-35.23
2023-03-02T01:11:01.250Z,-35.24
2023-03-02T01:13:28.175Z,-35.30
2023-03-02T01:16:02.418Z,-35.21
2023-03-02T01:18:28.952Z,-35.13
2023-03-02T01:21:03.203Z,-35.16
2023-03-02T01:23:29.762Z,-35.07
2023-03-02T01:25:57.041Z,-35.05
2023-03-02T01:28:23.929Z,-35.28
2023-03-02T01:30:50.562Z,-35.32
2023-03-02T01:33:17.045Z,-35.31
2023-03-02T01:35:47.066Z,-35.33
2023-03-02T01:38:14.043Z,-35.30
2023-03-02T01:40:40.546Z,-35.23
2023-03-02T01:43:12.186Z,-35.19
2023-03-02T01:46:03.334Z,-35.17
2023-03-02T01:48:35.178Z,-35.15
2023-03-02T01:51:02.569Z,-35.26
2023-03-02T01:53:31.334Z,-35.11
2023-03-02T01:55:58.334Z,-35.06
2023-03-02T01:58:25.415Z,-35.00
2023-03-02T02:00:52.843Z,-35.00
2023-03-02T02:03:22.231Z,-34.89
2023-03-02T02:05:58.775Z,-34.87
2023-03-02T02:08:25.459Z,-34.76
2023-03-02T02:10:53.069Z,-34.78
2023-03-02T02:13:19.737Z,-34.74
2023-03-02T02:15:46.284Z,-34.73
2023-03-02T02:18:12.797Z,-34.62
2023-03-02T02:20:47.466Z,-34.61
2023-03-02T02:23:29.402Z,-34.67
2023-03-02T02:26:02.418Z,-34.73
2023-03-02T02:28:36.106Z,-34.70
2023-03-02T02:31:14.795Z,-34.65
2023-03-02T02:33:45.664Z,-34.53
2023-03-02T02:36:19.630Z,-34.45
2023-03-02T02:38:48.558Z,-34.46
2023-03-02T02:41:21.213Z,-34.47
2023-03-02T02:43:47.946Z,-34.35
2023-03-02T02:46:14.526Z,-34.27
2023-03-02T02:48:41.490Z,-34.29
2023-03-02T02:51:09.729Z,-34.45
2023-03-02T02:53:50.128Z,-34.30
2023-03-02T02:56:17.602Z,-34.23
2023-03-02T02:58:47.570Z,-34.18
2023-03-02T03:01:15.864Z,-34.22
2023-03-02T03:03:47.296Z,-34.13
2023-03-02T03:06:18.053Z,-34.10
2023-03-02T03:08:44.470Z,-34.07
2023-03-02T03:11:13.442Z,-34.08
2023-03-02T03:13:41.292Z,-34.01
2023-03-02T03:16:10.463Z,-33.98
2023-03-02T03:18:37.074Z,-34.03
2023-03-02T03:21:03.697Z,-34.01
2023-03-02T03:23:30.497Z,-33.93
2023-03-02T03:25:57.473Z,-33.91
2023-03-02T03:28:24.008Z,-33.84
2023-03-02T03:30:50.520Z,-33.92
2023-03-02T03:33:17.200Z,-33.86
2023-03-02T03:35:43.865Z,-33.83
2023-03-02T03:38:10.346Z,-33.75
2023-03-02T03:40:37.011Z,-33.70
2023-03-02T03:43:04.251Z,-33.64
2023-03-02T03:45:31.008Z,-33.67
2023-03-02T03:47:57.712Z,-33.61
2023-03-02T03:50:24.663Z,-33.60
2023-03-02T03:52:51.319Z,-33.51
2023-03-02T03:55:18.053Z,-33.48
2023-03-02T03:57:44.656Z,-33.45
2023-03-02T04:00:14.996Z,-33.47
2023-03-02T04:02:41.861Z,-33.41
2023-03-02T04:05:09.407Z,-33.38
2023-03-02T04:07:37.415Z,-33.42
2023-03-02T04:10:05.107Z,-33.35
2023-03-02T04:12:35.628Z,-33.43
2023-03-02T04:15:02.904Z,-33.33
2023-03-02T04:17:29.495Z,-33.26
2023-03-02T04:19:56.208Z,-33.17
2023-03-02T04:22:22.826Z,-33.21
2023-03-02T04:24:49.919Z,-33.13
2023-03-02T04:27:16.876Z,-33.18
2023-03-02T04:29:44.865Z,-33.28
2023-03-02T04:32:14.588Z,-33.40
2023-03-02T04:34:41.192Z,-33.33
2023-03-02T04:37:07.793Z,-33.35
2023-03-02T04:39:34.245Z,-33.24
2023-03-02T04:42:00.817Z,-33.26
2023-03-02T04:44:27.309Z,-33.38
2023-03-02T04:46:53.936Z,-33.24
2023-03-02T04:49:20.629Z,-33.18
2023-03-02T04:51:48.701Z,-33.20
2023-03-02T04:54:21.169Z,-33.11
2023-03-02T04:56:48.655Z,-33.16
2023-03-02T04:59:20.159Z,-33.27
2023-03-02T05:01:47.192Z,-33.30
2023-03-02T05:04:13.969Z,-33.31
2023-03-02T05:06:40.715Z,-33.26
2023-03-02T05:09:07.180Z,-33.31
2023-03-02T05:11:34.146Z,-33.35
2023-03-02T05:14:03.508Z,-33.26
2023-03-02T05:16:32.762Z,-33.35
2023-03-02T05:19:01.605Z,-33.15
2023-03-02T05:21:28.232Z,-33.16
2023-03-02T05:23:55.430Z,-33.11
2023-03-02T05:26:22.265Z,-33.04
2023-03-02T05:28:48.973Z,-32.94
2023-03-02T05:31:23.318Z,-32.93
2023-03-02T05:33:49.969Z,-32.92
2023-03-02T05:36:18.998Z,-32.84
2023-03-02T05:38:46.592Z,-32.78
2023-03-02T05:41:13.307Z,-32.92
2023-03-02T05:43:39.856Z,-32.82
2023-03-02T05:46:06.496Z,-32.80
2023-03-02T05:48:33.393Z,-32.91
2023-03-02T05:51:00.074Z,-32.90
2023-03-02T05:53:26.743Z,-32.81
2023-03-02T05:55:53.475Z,-32.93
2023-03-02T05:58:20.653Z,-32.95
2023-03-02T06:00:48.144Z,-33.04
2023-03-02T06:03:15.595Z,-33.05
2023-03-02T06:05:42.603Z,-33.02
2023-03-02T06:08:09.441Z,-33.13
2023-03-02T06:10:36.247Z,-33.02
2023-03-02T06:13:02.856Z,-33.08
2023-03-02T06:15:29.827Z,-33.23
2023-03-02T06:17:59.101Z,-33.28
2023-03-02T06:20:26.077Z,-33.18
2023-03-02T06:22:53.186Z,-33.36
2023-03-02T06:25:23.650Z,-33.33
2023-03-02T06:27:51.703Z,-33.28
2023-03-02T06:30:21.503Z,-33.24
2023-03-02T06:32:48.041Z,-33.24
2023-03-02T06:35:14.809Z,-33.30
2023-03-02T06:37:44.062Z,-33.21
2023-03-02T06:40:12.012Z,-33.30
2023-03-02T06:42:39.457Z,-33.23
2023-03-02T06:45:07.200Z,-33.24
2023-03-02T06:47:34.072Z,-33.23
2023-03-02T06:50:00.674Z,-33.24
2023-03-02T06:52:27.635Z,-33.31
2023-03-02T06:54:55.005Z,-33.31
2023-03-02T06:57:21.561Z,-33.35
2023-03-02T06:59:48.232Z,-33.19
2023-03-02T07:02:14.703Z,-33.17
2023-03-02T07:04:41.243Z,-33.23
2023-03-02T07:07:07.946Z,-33.12
2023-03-02T07:09:34.721Z,-33.06
2023-03-02T07:12:01.535Z,-33.04
2023-03-02T07:14:28.262Z,-33.05
2023-03-02T07:16:57.423Z,-33.06
2023-03-02T07:19:24.043Z,-33.14
2023-03-02T07:21:50.671Z,-33.08
2023-03-02T07:24:17.228Z,-33.18
2023-03-02T07:26:43.992Z,-33.25
2023-03-02T07:29:10.582Z,-33.07
2023-03-02T07:31:37.136Z,-33.03
2023-03-02T07:34:03.773Z,-32.93
2023-03-02T07:36:30.373Z,-32.92
2023-03-02T07:38:57.575Z,-32.88
2023-03-02T07:41:24.078Z,-32.88
2023-03-02T07:43:50.697Z,-32.99
2023-03-02T07:46:17.229Z,-33.08
2023-03-02T07:48:43.757Z,-33.08
2023-03-02T07:51:10.451Z,-33.02
2023-03-02T07:53:36.999Z,-32.95
2023-03-02T07:56:11.001Z,-32.77
2023-03-02T07:58:37.892Z,-32.78
2023-03-02T08:01:04.692Z,-32.75
2023-03-02T08:03:31.205Z,-32.78
2023-03-02T08:05:57.988Z,-32.58
2023-03-02T08:08:24.636Z,-32.56
2023-03-02T08:10:51.166Z,-32.59
2023-03-02T08:13:17.815Z,-32.57
2023-03-02T08:15:44.430Z,-32.56
2023-03-02T08:18:10.922Z,-32.50
2023-03-02T08:20:37.710Z,-32.50
2023-03-02T08:23:04.200Z,-32.42
2023-03-02T08:25:30.670Z,-32.36
2023-03-02T08:27:57.588Z,-32.35
2023-03-02T08:30:24.100Z,-32.48
2023-03-02T08:32:50.809Z,-32.51
2023-03-02T08:35:17.516Z,-32.37
2023-03-02T08:37:44.007Z,-32.18
2023-03-02T08:40:11.097Z,-32.12
2023-03-02T08:42:37.942Z,-32.07
2023-03-02T08:45:04.854Z,-31.96
2023-03-02T08:47:32.424Z,-31.92
2023-03-02T08:49:59.004Z,-31.87
2023-03-02T08:52:25.580Z,-32.14
2023-03-02T08:54:52.134Z,-32.45
2023-03-02T08:57:19.750Z,-32.38
2023-03-02T08:59:47.762Z,-32.21
2023-03-02T09:02:14.362Z,-32.25
2023-03-02T09:04:41.184Z,-32.32
2023-03-02T09:07:07.809Z,-32.27
2023-03-02T09:09:34.420Z,-32.15
2023-03-02T09:12:00.935Z,-32.09
2023-03-02T09:14:27.831Z,-31.98
2023-03-02T09:16:54.524Z,-31.95
2023-03-02T09:19:21.269Z,-32.05
2023-03-02T09:21:48.061Z,-32.13
2023-03-02T09:24:14.587Z,-32.39
2023-03-02T09:26:41.204Z,-32.28
2023-03-02T09:29:08.040Z,-32.31
2023-03-02T09:31:36.085Z,-32.41
2023-03-02T09:34:04.332Z,-32.12
2023-03-02T09:36:32.774Z,-32.08
2023-03-02T09:38:59.529Z,-32.05
2023-03-02T09:41:59.771Z,-31.85
2023-03-02T09:44:35.399Z,-32.20
2023-03-02T09:47:05.202Z,-32.26
2023-03-02T09:49:50.429Z,-32.12
2023-03-02T09:52:19.835Z,-32.07
2023-03-02T09:54:46.300Z,-31.85
2023-03-02T09:57:24.784Z,-31.82
2023-03-02T10:00:06.635Z,-31.67
2023-03-02T10:03:05.137Z,-31.63
2023-03-02T10:05:43.147Z,-31.42
2023-03-02T10:08:22.009Z,-31.35
2023-03-02T10:10:51.187Z,-31.14
2023-03-02T10:13:26.509Z,-30.99
2023-03-02T10:15:58.821Z,-30.86
2023-03-02T10:18:35.823Z,-30.85
2023-03-02T10:21:27.253Z,-30.88
2023-03-02T10:24:42.462Z,-31.06
2023-03-02T10:27:19.093Z,-31.24
2023-03-02T10:29:51.558Z,-30.81
2023-03-02T10:32:26.553Z,-30.62
2023-03-02T10:34:53.835Z,-30.61
2023-03-02T10:37:29.721Z,-30.74
2023-03-02T10:39:59.173Z,-30.81
2023-03-02T10:42:37.561Z,-30.58
2023-03-02T10:45:27.420Z,-30.51
2023-03-02T10:48:09.249Z,-30.40
2023-03-02T10:50:36.819Z,-30.68
2023-03-02T10:53:06.876Z,-30.48
2023-03-02T10:55:34.429Z,-30.34
2023-03-02T10:58:25.983Z,-30.59
2023-03-02T11:00:58.115Z,-30.76
2023-03-02T11:03:24.784Z,-30.64
2023-03-02T11:05:51.445Z,-30.73
2023-03-02T11:08:23.424Z,-30.70
2023-03-02T11:11:03.697Z,-30.60
2023-03-02T11:13:35.472Z,-30.61
2023-03-02T11:16:03.123Z,-30.79
2023-03-02T11:18:29.559Z,-30.88
2023-03-02T11:21:05.585Z,-30.82
2023-03-02T11:24:02.677Z,-30.80
2023-03-02T11:26:46.133Z,-30.80
2023-03-02T11:29:20.979Z,-30.88
2023-03-02T11:31:56.171Z,-30.79
2023-03-02T11:34:54.435Z,-30.76
2023-03-02T11:37:36.833Z,-30.81
2023-03-02T11:40:09.094Z,-30.81
2023-03-02T11:42:39.036Z,-30.81
2023-03-02T11:45:16.707Z,-30.85
2023-03-02T11:47:57.415Z,-30.73
2023-03-02T11:50:28.323Z,-30.55
2023-03-02T11:52:58.900Z,-30.47
2023-03-02T11:55:30.269Z,-30.47
2023-03-02T12:00:37.409Z,-30.71
2023-03-02T12:03:07.223Z,-31.05
2023-03-02T12:05:37.115Z,-31.01
2023-03-02T12:08:07.479Z,-31.03
2023-03-02T12:10:40.413Z,-30.82
2023-03-02T12:13:15.745Z,-30.64
2023-03-02T12:15:45.393Z,-30.75
2023-03-02T12:18:21.178Z,-30.83
2023-03-02T12:21:07.660Z,-31.03
2023-03-02T12:23:36.698Z,-30.99
2023-03-02T12:26:09.438Z,-30.95
2023-03-02T12:28:38.906Z,-30.86
2023-03-02T12:31:12.455Z,-30.69
2023-03-02T12:33:49.179Z,-30.75
2023-03-02T12:36:27.527Z,-30.60
2023-03-02T12:39:06.277Z,-30.54
2023-03-02T12:41:51.166Z,-30.43
2023-03-02T12:44:33.770Z,-30.77
2023-03-02T12:47:02.942Z,-30.82
2023-03-02T12:49:50.597Z,-30.79
2023-03-02T12:52:34.611Z,-30.58
2023-03-02T12:55:04.522Z,-30.66
2023-03-02T12:57:31.853Z,-30.76
2023-03-02T13:00:01.942Z,-30.85
2023-03-02T13:02:36.330Z,-30.91
2023-03-02T13:05:07.167Z,-30.61
2023-03-02T13:07:41.373Z,-30.77
2023-03-02T13:10:38.189Z,-30.57
2023-03-02T13:13:17.008Z,-30.49
2023-03-02T13:15:52.658Z,-30.49
2023-03-02T13:18:23.540Z,-30.38
2023-03-02T13:20:50.600Z,-30.41
2023-03-02T13:23:18.249Z,-30.32
2023-03-02T13:25:52.514Z,-30.40
2023-03-02T13:28:35.086Z,-30.45
2023-03-02T13:31:04.412Z,-30.45
2023-03-02T13:33:32.202Z,-30.51
2023-03-02T13:35:59.138Z,-30.45
2023-03-02T13:38:28.228Z,-30.50
2023-03-02T13:40:56.044Z,-30.43
2023-03-02T13:43:34.581Z,-30.49
2023-03-02T13:46:03.750Z,-30.73
2023-03-02T13:48:31.012Z,-30.85
2023-03-02T13:51:15.576Z,-30.93
2023-03-02T13:53:50.668Z,-30.84
2023-03-02T13:56:18.350Z,-30.75
2023-03-02T13:58:45.321Z,-30.64
2023-03-02T14:01:13.066Z,-30.60
2023-03-02T14:03:39.740Z,-30.87
2023-03-02T14:06:07.397Z,-30.78
2023-03-02T14:08:33.986Z,-30.55
2023-03-02T14:11:01.490Z,-30.63
2023-03-02T14:13:37.673Z,-30.76
2023-03-02T14:16:04.610Z,-31.11
2023-03-02T14:18:40.499Z,-31.16
2023-03-02T14:21:12.358Z,-31.06
2023-03-02T14:23:41.107Z,-31.11
2023-03-02T14:26:26.383Z,-30.84
2023-03-02T14:29:04.554Z,-31.10
2023-03-02T14:31:32.227Z,-30.88
2023-03-02T14:33:58.925Z,-30.80
2023-03-02T14:36:34.890Z,-30.75
2023-03-02T14:39:05.044Z,-30.63
2023-03-02T14:41:34.440Z,-30.62
2023-03-02T14:44:05.102Z,-30.66
2023-03-02T14:46:31.685Z,-30.65
2023-03-02T14:48:58.166Z,-30.64
2023-03-02T14:51:27.175Z,-30.82
2023-03-02T14:53:56.055Z,-30.71
2023-03-02T14:56:56.281Z,-30.62
2023-03-02T14:59:22.810Z,-30.65
2023-03-02T15:01:49.527Z,-30.74
2023-03-02T15:04:16.284Z,-30.90
2023-03-02T15:06:43.162Z,-30.95
2023-03-02T15:09:10.996Z,-30.90
2023-03-02T15:11:37.433Z,-30.82
2023-03-02T15:14:03.944Z,-31.11
2023-03-02T15:16:30.814Z,-31.07
2023-03-02T15:18:58.901Z,-31.30
2023-03-02T15:21:25.601Z,-31.21
2023-03-02T15:23:52.348Z,-31.37
2023-03-02T15:26:18.969Z,-31.21
2023-03-02T15:28:45.694Z,-31.23
2023-03-02T15:31:16.616Z,-31.15
2023-03-02T15:33:45.144Z,-31.18
2023-03-02T15:36:12.588Z,-31.17
2023-03-02T15:38:39.634Z,-31.28
2023-03-02T15:41:08.662Z,-31.33
2023-03-02T15:43:35.294Z,-31.45
2023-03-02T15:46:02.325Z,-31.44
2023-03-02T17:59:16.845Z,-34.92
2023-03-02T18:01:44.040Z,-34.86
2023-03-02T18:04:10.587Z,-34.74
2023-03-02T18:06:37.278Z,-34.66
2023-03-02T18:09:03.933Z,-34.62
2023-03-02T18:11:30.447Z,-34.56
2023-03-02T18:13:58.032Z,-34.57
2023-03-02T18:16:26.251Z,-34.64
2023-03-02T18:18:54.060Z,-34.57
2023-03-02T18:21:21.202Z,-34.65
2023-03-02T18:23:47.671Z,-34.56
2023-03-02T18:26:18.238Z,-34.60
2023-03-02T18:28:44.983Z,-34.65
2023-03-02T18:31:15.191Z,-34.79
2023-03-02T18:33:42.137Z,-34.71
2023-03-02T18:36:09.459Z,-34.69
2023-03-02T18:38:36.444Z,-34.62
2023-03-02T18:41:04.831Z,-34.60
2023-03-02T18:43:34.895Z,-34.67
2023-03-02T18:46:04.068Z,-34.76
2023-03-02T18:48:31.391Z,-34.69
2023-03-02T18:50:58.540Z,-34.66
2023-03-02T18:53:25.745Z,-34.62
2023-03-02T18:55:55.519Z,-34.62
2023-03-02T18:58:23.411Z,-34.52
2023-03-02T19:00:49.911Z,-34.46
2023-03-02T19:03:17.480Z,-34.47
2023-03-02T19:05:44.764Z,-34.43
2023-03-02T19:08:11.896Z,-34.41
2023-03-02T19:10:39.525Z,-34.42
2023-03-02T19:13:06.142Z,-34.48
2023-03-02T19:15:34.809Z,-34.46
2023-03-02T19:18:01.557Z,-34.47
2023-03-02T19:20:28.377Z,-34.61
2023-03-02T19:22:55.407Z,-34.68
2023-03-02T19:25:22.416Z,-34.69
2023-03-02T19:27:49.009Z,-34.77
2023-03-02T19:30:23.459Z,-34.83
2023-03-02T19:32:53.826Z,-34.85
2023-03-02T19:35:22.520Z,-34.82
2023-03-02T19:37:49.059Z,-34.91
2023-03-02T19:40:17.981Z,-34.91
2023-03-02T19:42:45.852Z,-34.97
2023-03-02T19:45:17.898Z,-35.14
2023-03-02T19:47:45.520Z,-35.11
2023-03-02T19:50:13.733Z,-35.15
2023-03-02T19:52:40.662Z,-35.14
2023-03-02T19:55:10.668Z,-35.23
2023-03-02T19:57:38.123Z,-35.15
2023-03-02T20:00:07.662Z,-35.26
2023-03-02T20:02:36.183Z,-35.35
2023-03-02T20:05:03.876Z,-35.31
2023-03-02T20:07:30.337Z,-35.31
2023-03-02T20:09:56.950Z,-35.28
2023-03-02T20:12:23.439Z,-35.35
2023-03-02T20:14:51.168Z,-35.30
2023-03-02T20:17:19.778Z,-35.32
2023-03-02T20:19:47.524Z,-35.40
2023-03-02T20:22:14.950Z,-35.37
2023-03-02T20:24:43.117Z,-35.36
2023-03-02T20:27:11.517Z,-35.42
2023-03-02T20:29:40.208Z,-35.46
2023-03-02T20:32:09.105Z,-35.48
2023-03-02T20:34:41.193Z,-35.42
2023-03-02T20:37:08.062Z,-35.52
2023-03-02T20:39:41.601Z,-35.32
2023-03-02T20:42:09.267Z,-35.32
2023-03-02T20:44:36.352Z,-35.44
2023-03-02T20:47:10.852Z,-35.46
2023-03-02T20:49:37.673Z,-35.54
2023-03-02T20:52:05.481Z,-35.57
2023-03-02T20:54:36.384Z,-35.57
2023-03-02T20:57:05.450Z,-35.62
2023-03-02T20:59:32.517Z,-35.62
2023-03-02T21:01:59.423Z,-35.66
2023-03-02T21:04:26.303Z,-35.72
2023-03-02T21:06:53.123Z,-35.65
2023-03-02T21:09:20.262Z,-35.74
2023-03-02T21:11:47.340Z,-35.67
2023-03-02T21:14:15.097Z,-35.66
2023-03-02T21:16:44.062Z,-35.78
2023-03-02T21:19:14.016Z,-35.77
2023-03-02T21:21:42.179Z,-35.73
2023-03-02T21:24:10.704Z,-35.91
2023-03-02T21:26:37.347Z,-35.93
2023-03-02T21:29:05.336Z,-35.98
2023-03-02T21:31:32.028Z,-35.89
2023-03-02T21:34:00.065Z,-35.88
2023-03-02T21:36:27.278Z,-35.94
2023-03-02T21:38:54.027Z,-35.92
2023-03-02T21:41:20.702Z,-35.96
2023-03-02T21:43:48.374Z,-35.90
2023-03-02T21:46:19.353Z,-35.85
2023-03-02T21:48:46.772Z,-35.84
2023-03-02T21:51:15.139Z,-35.94
2023-03-02T21:53:41.881Z,-35.91
2023-03-02T21:56:09.605Z,-35.90
2023-03-02T21:58:36.208Z,-35.94
2023-03-02T22:01:02.899Z,-35.81
2023-03-02T22:03:29.351Z,-35.81
2023-03-02T22:05:56.070Z,-35.89
2023-03-02T22:08:22.759Z,-35.83
2023-03-02T22:10:50.517Z,-35.85
2023-03-02T22:13:26.400Z,-35.80
2023-03-02T22:16:05.880Z,-35.80
2023-03-02T22:18:32.413Z,-35.81
2023-03-02T22:20:58.930Z,-35.94
2023-03-02T22:23:26.962Z,-35.89
2023-03-02T22:25:56.319Z,-36.02
2023-03-02T22:28:25.384Z,-36.05
2023-03-02T22:30:52.604Z,-36.06
2023-03-02T22:33:24.906Z,-36.04
2023-03-02T22:35:53.209Z,-35.93
2023-03-02T22:38:25.184Z,-35.95
2023-03-02T22:40:53.043Z,-35.98
2023-03-02T22:43:26.482Z,-35.98
2023-03-02T22:45:54.156Z,-35.99
2023-03-02T22:48:22.421Z,-36.07
2023-03-02T22:50:50.066Z,-36.18
2023-03-02T22:53:49.869Z,-36.06
2023-03-02T22:56:37.546Z,-36.02
2023-03-02T22:59:07.542Z,-36.15
2023-03-02T23:01:42.529Z,-36.15
2023-03-02T23:04:16.213Z,-36.25
2023-03-02T23:06:45.250Z,-36.29
2023-03-02T23:09:14.715Z,-36.36
2023-03-02T23:11:42.024Z,-36.43
2023-03-02T23:14:23.592Z,-36.49
2023-03-02T23:17:31.956Z,-36.52
2023-03-02T23:19:58.836Z,-36.36
2023-03-02T23:22:28.495Z,-36.37
2023-03-02T23:24:55.958Z,-36.40
2023-03-02T23:27:24.280Z,-36.46
2023-03-02T23:29:51.899Z,-36.35
2023-03-02T23:32:19.525Z,-36.36
2023-03-02T23:34:46.296Z,-36.35
2023-03-02T23:37:12.928Z,-36.45
2023-03-02T23:39:39.564Z,-36.43
2023-03-02T23:42:06.186Z,-36.51
2023-03-02T23:44:32.646Z,-36.51
2023-03-02T23:46:59.567Z,-36.39
2023-03-02T23:49:26.133Z,-36.44
2023-03-02T23:51:52.767Z,-36.52
2023-03-02T23:54:19.412Z,-36.50
2023-03-02T23:56:45.964Z,-36.55
2023-03-02T23:59:12.509Z,-36.59
